sensor_id;sensor_type;location;lat;lon;timestamp;P1;durP1;ratioP1;P2;durP2;ratioP2
16531;SDS011;66872;63.142;14.482;2023-03-31T00:02:00;1.00;;;0.90;;
16531;SDS011;66872;63.142;14.482;2023-03-31T00:04:31;1.00;;;1.00;;
16531;SDS011;66872;63.142;14.482;2023-03-31T00:06:57;1.47;;;1.20;;
16531;SDS011;66872;63.142;14.482;2023-03-31T00:09:23;0.90;;;0.90;;
16531;SDS011;66872;63.142;14.482;2023-03-31T00:11:49;0.90;;;0.90;;
16531;SDS011;66872;63.142;14.482;2023-03-31T00:14:16;0.90;;;0.90;;
16531;SDS011;66872;63.142;14.482;2023-03-31T00:16:43;1.13;;;1.03;;
16531;SDS011;66872;63.142;14.482;2023-03-31T00:19:10;1.20;;;1.10;;
16531;SDS011;66872;63.142;14.482;2023-03-31T00:21:42;0.83;;;0.83;;
16531;SDS011;66872;63.142;14.482;2023-03-31T00:24:11;1.20;;;1.10;;
16531;SDS011;66872;63.142;14.482;2023-03-31T00:26:38;1.20;;;1.10;;
16531;SDS011;66872;63.142;14.482;2023-03-31T00:29:04;1.03;;;1.00;;
16531;SDS011;66872;63.142;14.482;2023-03-31T00:31:31;0.90;;;0.90;;
16531;SDS011;66872;63.142;14.482;2023-03-31T00:33:57;1.20;;;1.10;;
16531;SDS011;66872;63.142;14.482;2023-03-31T00:36:24;0.93;;;0.93;;
16531;SDS011;66872;63.142;14.482;2023-03-31T00:38:53;1.33;;;1.10;;
16531;SDS011;66872;63.142;14.482;2023-03-31T00:41:24;0.83;;;0.83;;
16531;SDS011;66872;63.142;14.482;2023-03-31T00:44:01;1.13;;;1.03;;
16531;SDS011;66872;63.142;14.482;2023-03-31T00:47:17;1.00;;;0.90;;
16531;SDS011;66872;63.142;14.482;2023-03-31T00:49:25;1.10;;;1.00;;
16531;SDS011;66872;63.142;14.482;2023-03-31T00:52:11;0.90;;;0.90;;
16531;SDS011;66872;63.142;14.482;2023-03-31T00:54:38;1.20;;;1.10;;
16531;SDS011;66872;63.142;14.482;2023-03-31T00:57:05;0.90;;;0.90;;
16531;SDS011;66872;63.142;14.482;2023-03-31T00:59:34;1.00;;;1.00;;
16531;SDS011;66872;63.142;14.482;2023-03-31T01:02:12;0.90;;;0.90;;
16531;SDS011;66872;63.142;14.482;2023-03-31T01:04:45;1.10;;;1.00;;
16531;SDS011;66872;63.142;14.482;2023-03-31T01:09:47;1.13;;;1.03;;
16531;SDS011;66872;63.142;14.482;2023-03-31T01:12:14;0.97;;;0.93;;
16531;SDS011;66872;63.142;14.482;2023-03-31T01:14:43;1.23;;;1.10;;
16531;SDS011;66872;63.142;14.482;2023-03-31T01:17:08;1.00;;;1.00;;
16531;SDS011;66872;63.142;14.482;2023-03-31T01:19:38;0.97;;;0.97;;
16531;SDS011;66872;63.142;14.482;2023-03-31T01:38:15;1.20;;;1.10;;
16531;SDS011;66872;63.142;14.482;2023-03-31T01:49:05;1.20;;;1.00;;
16531;SDS011;66872;63.142;14.482;2023-03-31T01:52:03;1.00;;;1.00;;
16531;SDS011;66872;63.142;14.482;2023-03-31T01:54:36;0.87;;;0.87;;
16531;SDS011;66872;63.142;14.482;2023-03-31T01:57:11;0.90;;;0.90;;
16531;SDS011;66872;63.142;14.482;2023-03-31T02:02:31;1.37;;;1.10;;
16531;SDS011;66872;63.142;14.482;2023-03-31T02:05:07;0.87;;;0.87;;
16531;SDS011;66872;63.142;14.482;2023-03-31T02:07:37;1.00;;;1.00;;
16531;SDS011;66872;63.142;14.482;2023-03-31T02:10:08;1.20;;;1.10;;
16531;SDS011;66872;63.142;14.482;2023-03-31T02:12:37;1.00;;;1.00;;
16531;SDS011;66872;63.142;14.482;2023-03-31T02:15:06;1.73;;;1.00;;
16531;SDS011;66872;63.142;14.482;2023-03-31T02:17:38;1.13;;;1.03;;
16531;SDS011;66872;63.142;14.482;2023-03-31T02:20:10;1.17;;;1.07;;
16531;SDS011;66872;63.142;14.482;2023-03-31T02:22:42;1.10;;;1.00;;
16531;SDS011;66872;63.142;14.482;2023-03-31T02:25:13;0.90;;;0.90;;
16531;SDS011;66872;63.142;14.482;2023-03-31T02:27:43;0.90;;;0.90;;
16531;SDS011;66872;63.142;14.482;2023-03-31T02:30:13;1.13;;;1.03;;
16531;SDS011;66872;63.142;14.482;2023-03-31T02:32:40;0.97;;;0.97;;
16531;SDS011;66872;63.142;14.482;2023-03-31T02:35:11;1.00;;;1.00;;
16531;SDS011;66872;63.142;14.482;2023-03-31T02:37:40;1.03;;;0.97;;
16531;SDS011;66872;63.142;14.482;2023-03-31T02:40:09;1.00;;;1.00;;
16531;SDS011;66872;63.142;14.482;2023-03-31T02:42:41;1.13;;;1.00;;
16531;SDS011;66872;63.142;14.482;2023-03-31T02:48:00;1.20;;;1.10;;
16531;SDS011;66872;63.142;14.482;2023-03-31T02:50:27;1.00;;;1.00;;
16531;SDS011;66872;63.142;14.482;2023-03-31T02:56:05;1.03;;;1.00;;
16531;SDS011;66872;63.142;14.482;2023-03-31T03:06:50;1.00;;;0.90;;
16531;SDS011;66872;63.142;14.482;2023-03-31T03:12:32;1.07;;;1.07;;
16531;SDS011;66872;63.142;14.482;2023-03-31T03:15:18;0.80;;;0.80;;
16531;SDS011;66872;63.142;14.482;2023-03-31T03:17:47;1.20;;;1.10;;
16531;SDS011;66872;63.142;14.482;2023-03-31T03:20:14;0.90;;;0.90;;
16531;SDS011;66872;63.142;14.482;2023-03-31T03:22:42;1.07;;;1.07;;
16531;SDS011;66872;63.142;14.482;2023-03-31T03:25:10;0.90;;;0.90;;
16531;SDS011;66872;63.142;14.482;2023-03-31T03:27:37;1.10;;;1.00;;
16531;SDS011;66872;63.142;14.482;2023-03-31T03:30:04;0.93;;;0.93;;
16531;SDS011;66872;63.142;14.482;2023-03-31T03:32:32;0.80;;;0.80;;
16531;SDS011;66872;63.142;14.482;2023-03-31T03:34:59;0.80;;;0.80;;
16531;SDS011;66872;63.142;14.482;2023-03-31T03:37:25;1.10;;;1.00;;
16531;SDS011;66872;63.142;14.482;2023-03-31T03:39:51;1.60;;;0.90;;
16531;SDS011;66872;63.142;14.482;2023-03-31T03:42:17;1.20;;;1.10;;
16531;SDS011;66872;63.142;14.482;2023-03-31T03:44:42;1.20;;;1.10;;
16531;SDS011;66872;63.142;14.482;2023-03-31T03:47:08;0.83;;;0.83;;
16531;SDS011;66872;63.142;14.482;2023-03-31T03:49:34;0.90;;;0.90;;
16531;SDS011;66872;63.142;14.482;2023-03-31T03:51:59;1.00;;;0.97;;
16531;SDS011;66872;63.142;14.482;2023-03-31T03:54:25;0.90;;;0.90;;
16531;SDS011;66872;63.142;14.482;2023-03-31T03:56:51;0.90;;;0.90;;
16531;SDS011;66872;63.142;14.482;2023-03-31T03:59:16;1.30;;;1.10;;
16531;SDS011;66872;63.142;14.482;2023-03-31T04:01:42;1.20;;;1.10;;
16531;SDS011;66872;63.142;14.482;2023-03-31T04:04:07;1.87;;;0.90;;
16531;SDS011;66872;63.142;14.482;2023-03-31T04:06:33;1.20;;;1.10;;
16531;SDS011;66872;63.142;14.482;2023-03-31T04:08:59;0.90;;;0.90;;
16531;SDS011;66872;63.142;14.482;2023-03-31T04:11:25;1.17;;;1.07;;
16531;SDS011;66872;63.142;14.482;2023-03-31T04:13:52;0.87;;;0.87;;
16531;SDS011;66872;63.142;14.482;2023-03-31T04:16:17;0.93;;;0.93;;
16531;SDS011;66872;63.142;14.482;2023-03-31T04:18:43;1.10;;;1.00;;
16531;SDS011;66872;63.142;14.482;2023-03-31T04:21:09;1.20;;;1.10;;
16531;SDS011;66872;63.142;14.482;2023-03-31T04:23:39;0.97;;;0.90;;
16531;SDS011;66872;63.142;14.482;2023-03-31T04:26:23;1.10;;;1.00;;
16531;SDS011;66872;63.142;14.482;2023-03-31T04:28:55;0.90;;;0.90;;
16531;SDS011;66872;63.142;14.482;2023-03-31T04:31:24;0.90;;;0.90;;
16531;SDS011;66872;63.142;14.482;2023-03-31T04:33:51;1.20;;;1.10;;
16531;SDS011;66872;63.142;14.482;2023-03-31T04:36:17;1.20;;;1.10;;
16531;SDS011;66872;63.142;14.482;2023-03-31T04:38:43;1.03;;;1.00;;
16531;SDS011;66872;63.142;14.482;2023-03-31T04:41:16;1.00;;;1.00;;
16531;SDS011;66872;63.142;14.482;2023-03-31T04:43:42;1.00;;;1.00;;
16531;SDS011;66872;63.142;14.482;2023-03-31T04:46:08;1.33;;;1.00;;
16531;SDS011;66872;63.142;14.482;2023-03-31T04:48:34;1.20;;;1.10;;
16531;SDS011;66872;63.142;14.482;2023-03-31T04:51:00;1.10;;;0.90;;
16531;SDS011;66872;63.142;14.482;2023-03-31T04:53:26;0.90;;;0.90;;
16531;SDS011;66872;63.142;14.482;2023-03-31T04:55:51;0.90;;;0.90;;
16531;SDS011;66872;63.142;14.482;2023-03-31T04:58:17;1.20;;;1.10;;
16531;SDS011;66872;63.142;14.482;2023-03-31T05:00:43;1.17;;;1.07;;
16531;SDS011;66872;63.142;14.482;2023-03-31T05:03:09;1.20;;;1.07;;
16531;SDS011;66872;63.142;14.482;2023-03-31T05:05:35;1.20;;;1.10;;
16531;SDS011;66872;63.142;14.482;2023-03-31T05:08:01;1.00;;;0.90;;
16531;SDS011;66872;63.142;14.482;2023-03-31T05:10:28;0.83;;;0.83;;
16531;SDS011;66872;63.142;14.482;2023-03-31T05:12:54;0.90;;;0.90;;
16531;SDS011;66872;63.142;14.482;2023-03-31T05:15:20;1.13;;;1.10;;
16531;SDS011;66872;63.142;14.482;2023-03-31T05:17:46;1.20;;;1.10;;
16531;SDS011;66872;63.142;14.482;2023-03-31T05:20:12;0.90;;;0.90;;
16531;SDS011;66872;63.142;14.482;2023-03-31T05:22:39;0.97;;;0.97;;
16531;SDS011;66872;63.142;14.482;2023-03-31T05:25:06;1.00;;;1.00;;
16531;SDS011;66872;63.142;14.482;2023-03-31T05:27:33;0.90;;;0.90;;
16531;SDS011;66872;63.142;14.482;2023-03-31T05:30:00;1.10;;;1.00;;
16531;SDS011;66872;63.142;14.482;2023-03-31T05:32:26;1.20;;;1.10;;
16531;SDS011;66872;63.142;14.482;2023-03-31T05:34:53;1.10;;;1.00;;
16531;SDS011;66872;63.142;14.482;2023-03-31T05:37:22;0.90;;;0.90;;
16531;SDS011;66872;63.142;14.482;2023-03-31T05:39:49;1.00;;;1.00;;
16531;SDS011;66872;63.142;14.482;2023-03-31T05:42:15;0.90;;;0.90;;
16531;SDS011;66872;63.142;14.482;2023-03-31T05:44:41;1.27;;;1.07;;
16531;SDS011;66872;63.142;14.482;2023-03-31T05:47:07;1.20;;;1.10;;
16531;SDS011;66872;63.142;14.482;2023-03-31T05:49:32;1.07;;;1.00;;
16531;SDS011;66872;63.142;14.482;2023-03-31T05:51:58;1.30;;;1.20;;
16531;SDS011;66872;63.142;14.482;2023-03-31T05:54:25;0.80;;;0.80;;
16531;SDS011;66872;63.142;14.482;2023-03-31T05:56:51;1.20;;;1.10;;
16531;SDS011;66872;63.142;14.482;2023-03-31T05:59:18;1.40;;;1.10;;
16531;SDS011;66872;63.142;14.482;2023-03-31T06:01:43;1.30;;;1.20;;
16531;SDS011;66872;63.142;14.482;2023-03-31T06:04:09;1.20;;;1.10;;
16531;SDS011;66872;63.142;14.482;2023-03-31T06:06:35;1.00;;;1.00;;
16531;SDS011;66872;63.142;14.482;2023-03-31T06:09:02;1.10;;;1.00;;
16531;SDS011;66872;63.142;14.482;2023-03-31T06:11:28;1.20;;;1.10;;
16531;SDS011;66872;63.142;14.482;2023-03-31T06:13:54;1.00;;;0.90;;
16531;SDS011;66872;63.142;14.482;2023-03-31T06:16:20;0.93;;;0.93;;
16531;SDS011;66872;63.142;14.482;2023-03-31T06:18:45;1.00;;;1.00;;
16531;SDS011;66872;63.142;14.482;2023-03-31T06:21:13;0.90;;;0.90;;
16531;SDS011;66872;63.142;14.482;2023-03-31T06:23:40;1.10;;;1.07;;
16531;SDS011;66872;63.142;14.482;2023-03-31T06:26:10;0.80;;;0.80;;
16531;SDS011;66872;63.142;14.482;2023-03-31T06:28:37;1.10;;;1.00;;
16531;SDS011;66872;63.142;14.482;2023-03-31T06:31:04;1.00;;;0.90;;
16531;SDS011;66872;63.142;14.482;2023-03-31T06:33:34;1.23;;;1.13;;
16531;SDS011;66872;63.142;14.482;2023-03-31T06:36:00;1.17;;;1.07;;
16531;SDS011;66872;63.142;14.482;2023-03-31T06:38:28;0.93;;;0.93;;
16531;SDS011;66872;63.142;14.482;2023-03-31T06:40:54;1.03;;;0.97;;
16531;SDS011;66872;63.142;14.482;2023-03-31T06:43:20;1.20;;;1.10;;
16531;SDS011;66872;63.142;14.482;2023-03-31T06:45:45;1.20;;;1.10;;
16531;SDS011;66872;63.142;14.482;2023-03-31T06:48:12;0.97;;;0.97;;
16531;SDS011;66872;63.142;14.482;2023-03-31T06:50:38;1.83;;;1.10;;
16531;SDS011;66872;63.142;14.482;2023-03-31T06:53:05;1.07;;;1.00;;
16531;SDS011;66872;63.142;14.482;2023-03-31T06:55:32;1.20;;;1.10;;
16531;SDS011;66872;63.142;14.482;2023-03-31T06:57:58;0.90;;;0.90;;
16531;SDS011;66872;63.142;14.482;2023-03-31T07:00:24;1.00;;;1.00;;
16531;SDS011;66872;63.142;14.482;2023-03-31T07:02:51;1.13;;;1.03;;
16531;SDS011;66872;63.142;14.482;2023-03-31T07:05:17;1.57;;;1.07;;
16531;SDS011;66872;63.142;14.482;2023-03-31T07:07:44;0.93;;;0.93;;
16531;SDS011;66872;63.142;14.482;2023-03-31T07:10:10;1.20;;;1.10;;
16531;SDS011;66872;63.142;14.482;2023-03-31T07:12:36;1.30;;;1.20;;
16531;SDS011;66872;63.142;14.482;2023-03-31T07:15:01;1.00;;;1.00;;
16531;SDS011;66872;63.142;14.482;2023-03-31T07:17:27;1.00;;;1.00;;
16531;SDS011;66872;63.142;14.482;2023-03-31T07:19:53;1.00;;;0.90;;
16531;SDS011;66872;63.142;14.482;2023-03-31T07:22:19;1.40;;;1.10;;
16531;SDS011;66872;63.142;14.482;2023-03-31T07:24:44;1.50;;;1.20;;
16531;SDS011;66872;63.142;14.482;2023-03-31T07:27:10;0.80;;;0.80;;
16531;SDS011;66872;63.142;14.482;2023-03-31T07:29:36;1.00;;;1.00;;
16531;SDS011;66872;63.142;14.482;2023-03-31T07:32:01;1.07;;;1.00;;
16531;SDS011;66872;63.142;14.482;2023-03-31T07:34:27;1.87;;;1.00;;
16531;SDS011;66872;63.142;14.482;2023-03-31T07:36:54;0.97;;;0.97;;
16531;SDS011;66872;63.142;14.482;2023-03-31T07:39:20;0.90;;;0.90;;
16531;SDS011;66872;63.142;14.482;2023-03-31T07:41:46;0.90;;;0.90;;
16531;SDS011;66872;63.142;14.482;2023-03-31T07:44:12;1.20;;;1.10;;
16531;SDS011;66872;63.142;14.482;2023-03-31T07:46:38;0.70;;;0.70;;
16531;SDS011;66872;63.142;14.482;2023-03-31T07:49:04;1.10;;;1.00;;
16531;SDS011;66872;63.142;14.482;2023-03-31T07:51:31;1.03;;;1.00;;
16531;SDS011;66872;63.142;14.482;2023-03-31T07:53:57;1.00;;;1.00;;
16531;SDS011;66872;63.142;14.482;2023-03-31T07:56:23;1.00;;;0.90;;
16531;SDS011;66872;63.142;14.482;2023-03-31T07:58:49;1.03;;;0.97;;
16531;SDS011;66872;63.142;14.482;2023-03-31T08:01:17;0.80;;;0.80;;
16531;SDS011;66872;63.142;14.482;2023-03-31T08:03:45;1.00;;;1.00;;
16531;SDS011;66872;63.142;14.482;2023-03-31T08:06:16;0.90;;;0.90;;
16531;SDS011;66872;63.142;14.482;2023-03-31T08:08:43;1.20;;;1.10;;
16531;SDS011;66872;63.142;14.482;2023-03-31T08:11:09;0.90;;;0.90;;
16531;SDS011;66872;63.142;14.482;2023-03-31T08:13:35;1.00;;;1.00;;
16531;SDS011;66872;63.142;14.482;2023-03-31T08:16:01;1.23;;;1.03;;
16531;SDS011;66872;63.142;14.482;2023-03-31T08:18:26;1.10;;;1.00;;
16531;SDS011;66872;63.142;14.482;2023-03-31T08:20:52;0.90;;;0.90;;
16531;SDS011;66872;63.142;14.482;2023-03-31T08:23:18;1.00;;;1.00;;
16531;SDS011;66872;63.142;14.482;2023-03-31T08:25:43;1.00;;;0.90;;
16531;SDS011;66872;63.142;14.482;2023-03-31T08:28:09;0.83;;;0.83;;
16531;SDS011;66872;63.142;14.482;2023-03-31T08:30:37;0.97;;;0.97;;
16531;SDS011;66872;63.142;14.482;2023-03-31T08:33:04;1.10;;;1.00;;
16531;SDS011;66872;63.142;14.482;2023-03-31T08:35:31;1.07;;;1.00;;
16531;SDS011;66872;63.142;14.482;2023-03-31T08:37:58;1.10;;;1.00;;
16531;SDS011;66872;63.142;14.482;2023-03-31T08:40:24;1.60;;;1.10;;
16531;SDS011;66872;63.142;14.482;2023-03-31T08:42:52;1.90;;;1.00;;
16531;SDS011;66872;63.142;14.482;2023-03-31T08:45:42;1.87;;;1.00;;
16531;SDS011;66872;63.142;14.482;2023-03-31T08:48:28;1.50;;;0.90;;
16531;SDS011;66872;63.142;14.482;2023-03-31T08:51:11;1.27;;;1.07;;
16531;SDS011;66872;63.142;14.482;2023-03-31T08:54:04;0.80;;;0.80;;
16531;SDS011;66872;63.142;14.482;2023-03-31T08:56:37;1.47;;;1.00;;
16531;SDS011;66872;63.142;14.482;2023-03-31T08:59:14;1.07;;;1.00;;
16531;SDS011;66872;63.142;14.482;2023-03-31T09:04:33;1.33;;;0.90;;
16531;SDS011;66872;63.142;14.482;2023-03-31T09:07:29;2.10;;;1.20;;
16531;SDS011;66872;63.142;14.482;2023-03-31T09:12:52;1.37;;;1.20;;
16531;SDS011;66872;63.142;14.482;2023-03-31T09:15:47;1.53;;;1.10;;
16531;SDS011;66872;63.142;14.482;2023-03-31T09:18:28;1.07;;;0.97;;
16531;SDS011;66872;63.142;14.482;2023-03-31T09:23:47;0.80;;;0.80;;
16531;SDS011;66872;63.142;14.482;2023-03-31T09:26:24;2.00;;;1.00;;
16531;SDS011;66872;63.142;14.482;2023-03-31T09:34:44;1.20;;;1.10;;
16531;SDS011;66872;63.142;14.482;2023-03-31T09:37:12;0.93;;;0.93;;
16531;SDS011;66872;63.142;14.482;2023-03-31T09:39:38;1.00;;;0.90;;
16531;SDS011;66872;63.142;14.482;2023-03-31T09:42:04;1.00;;;1.00;;
16531;SDS011;66872;63.142;14.482;2023-03-31T09:44:36;1.40;;;1.10;;
16531;SDS011;66872;63.142;14.482;2023-03-31T09:47:20;1.20;;;1.10;;
16531;SDS011;66872;63.142;14.482;2023-03-31T09:49:56;1.20;;;1.10;;
16531;SDS011;66872;63.142;14.482;2023-03-31T09:52:26;0.80;;;0.80;;
16531;SDS011;66872;63.142;14.482;2023-03-31T09:55:49;1.17;;;1.07;;
16531;SDS011;66872;63.142;14.482;2023-03-31T09:58:01;1.10;;;1.00;;
16531;SDS011;66872;63.142;14.482;2023-03-31T10:00:32;1.20;;;1.10;;
16531;SDS011;66872;63.142;14.482;2023-03-31T10:03:02;1.10;;;1.00;;
16531;SDS011;66872;63.142;14.482;2023-03-31T10:10:50;0.83;;;0.83;;
16531;SDS011;66872;63.142;14.482;2023-03-31T10:13:20;1.70;;;1.03;;
16531;SDS011;66872;63.142;14.482;2023-03-31T10:15:54;0.80;;;0.80;;
16531;SDS011;66872;63.142;14.482;2023-03-31T10:18:32;1.00;;;1.00;;
16531;SDS011;66872;63.142;14.482;2023-03-31T10:21:03;1.10;;;1.00;;
16531;SDS011;66872;63.142;14.482;2023-03-31T10:23:32;1.00;;;1.00;;
16531;SDS011;66872;63.142;14.482;2023-03-31T10:25:59;1.03;;;0.93;;
16531;SDS011;66872;63.142;14.482;2023-03-31T10:28:30;1.37;;;1.20;;
16531;SDS011;66872;63.142;14.482;2023-03-31T10:30:58;1.07;;;0.97;;
16531;SDS011;66872;63.142;14.482;2023-03-31T10:33:26;1.20;;;1.10;;
16531;SDS011;66872;63.142;14.482;2023-03-31T10:36:11;0.90;;;0.87;;
16531;SDS011;66872;63.142;14.482;2023-03-31T10:38:43;0.97;;;0.97;;
16531;SDS011;66872;63.142;14.482;2023-03-31T10:41:10;2.00;;;1.20;;
16531;SDS011;66872;63.142;14.482;2023-03-31T10:43:42;0.83;;;0.83;;
16531;SDS011;66872;63.142;14.482;2023-03-31T10:46:13;0.90;;;0.90;;
16531;SDS011;66872;63.142;14.482;2023-03-31T10:48:39;0.90;;;0.90;;
16531;SDS011;66872;63.142;14.482;2023-03-31T11:10:43;0.97;;;0.90;;
16531;SDS011;66872;63.142;14.482;2023-03-31T11:21:00;0.90;;;0.90;;
16531;SDS011;66872;63.142;14.482;2023-03-31T11:23:42;0.90;;;0.90;;
16531;SDS011;66872;63.142;14.482;2023-03-31T11:29:20;1.00;;;1.00;;
16531;SDS011;66872;63.142;14.482;2023-03-31T11:42:23;0.90;;;0.90;;
16531;SDS011;66872;63.142;14.482;2023-03-31T11:44:51;1.03;;;1.00;;
16531;SDS011;66872;63.142;14.482;2023-03-31T11:47:25;0.80;;;0.80;;
16531;SDS011;66872;63.142;14.482;2023-03-31T11:50:02;1.87;;;0.90;;
16531;SDS011;66872;63.142;14.482;2023-03-31T11:52:34;0.90;;;0.90;;
16531;SDS011;66872;63.142;14.482;2023-03-31T11:55:14;1.10;;;1.00;;
16531;SDS011;66872;63.142;14.482;2023-03-31T12:02:45;1.10;;;1.00;;
16531;SDS011;66872;63.142;14.482;2023-03-31T12:05:16;0.80;;;0.80;;
16531;SDS011;66872;63.142;14.482;2023-03-31T12:11:03;2.37;;;1.27;;
16531;SDS011;66872;63.142;14.482;2023-03-31T12:13:51;2.17;;;1.00;;
16531;SDS011;66872;63.142;14.482;2023-03-31T12:16:43;1.10;;;1.00;;
16531;SDS011;66872;63.142;14.482;2023-03-31T12:19:19;1.20;;;1.10;;
16531;SDS011;66872;63.142;14.482;2023-03-31T12:22:09;2.93;;;1.10;;
16531;SDS011;66872;63.142;14.482;2023-03-31T12:24:42;1.03;;;1.00;;
16531;SDS011;66872;63.142;14.482;2023-03-31T12:27:25;1.63;;;1.07;;
16531;SDS011;66872;63.142;14.482;2023-03-31T12:33:24;1.13;;;1.00;;
16531;SDS011;66872;63.142;14.482;2023-03-31T12:35:55;0.90;;;0.90;;
16531;SDS011;66872;63.142;14.482;2023-03-31T12:38:57;2.23;;;1.00;;
16531;SDS011;66872;63.142;14.482;2023-03-31T12:47:38;1.37;;;1.20;;
16531;SDS011;66872;63.142;14.482;2023-03-31T12:52:50;1.50;;;1.00;;
16531;SDS011;66872;63.142;14.482;2023-03-31T13:06:45;0.97;;;0.93;;
16531;SDS011;66872;63.142;14.482;2023-03-31T13:11:45;0.93;;;0.83;;
16531;SDS011;66872;63.142;14.482;2023-03-31T13:16:47;1.63;;;1.00;;
16531;SDS011;66872;63.142;14.482;2023-03-31T13:19:27;0.80;;;0.80;;
16531;SDS011;66872;63.142;14.482;2023-03-31T13:21:59;2.87;;;1.07;;
16531;SDS011;66872;63.142;14.482;2023-03-31T13:24:27;1.37;;;0.80;;
16531;SDS011;66872;63.142;14.482;2023-03-31T13:26:55;1.13;;;0.90;;
16531;SDS011;66872;63.142;14.482;2023-03-31T13:29:24;1.30;;;1.00;;
16531;SDS011;66872;63.142;14.482;2023-03-31T13:34:41;0.80;;;0.80;;
16531;SDS011;66872;63.142;14.482;2023-03-31T13:40:25;1.00;;;0.90;;
16531;SDS011;66872;63.142;14.482;2023-03-31T13:43:16;1.33;;;0.87;;
16531;SDS011;66872;63.142;14.482;2023-03-31T13:54:02;0.90;;;0.90;;
16531;SDS011;66872;63.142;14.482;2023-03-31T14:08:10;0.80;;;0.80;;
16531;SDS011;66872;63.142;14.482;2023-03-31T14:10:40;0.80;;;0.80;;
16531;SDS011;66872;63.142;14.482;2023-03-31T14:13:19;0.70;;;0.70;;
16531;SDS011;66872;63.142;14.482;2023-03-31T14:18:20;0.80;;;0.80;;
16531;SDS011;66872;63.142;14.482;2023-03-31T14:21:13;0.93;;;0.90;;
16531;SDS011;66872;63.142;14.482;2023-03-31T14:23:50;0.90;;;0.90;;
16531;SDS011;66872;63.142;14.482;2023-03-31T14:26:34;0.80;;;0.80;;
16531;SDS011;66872;63.142;14.482;2023-03-31T14:29:41;2.00;;;0.83;;
16531;SDS011;66872;63.142;14.482;2023-03-31T14:37:21;1.97;;;1.07;;
16531;SDS011;66872;63.142;14.482;2023-03-31T14:39:49;0.80;;;0.80;;
16531;SDS011;66872;63.142;14.482;2023-03-31T14:42:20;1.37;;;1.00;;
16531;SDS011;66872;63.142;14.482;2023-03-31T14:44:53;1.27;;;0.97;;
16531;SDS011;66872;63.142;14.482;2023-03-31T14:47:26;1.00;;;0.90;;
16531;SDS011;66872;63.142;14.482;2023-03-31T14:49:58;1.07;;;1.00;;
16531;SDS011;66872;63.142;14.482;2023-03-31T14:52:30;1.40;;;0.97;;
16531;SDS011;66872;63.142;14.482;2023-03-31T14:54:58;5.30;;;1.47;;
16531;SDS011;66872;63.142;14.482;2023-03-31T14:57:31;6.13;;;1.33;;
16531;SDS011;66872;63.142;14.482;2023-03-31T15:00:02;3.37;;;1.40;;
16531;SDS011;66872;63.142;14.482;2023-03-31T15:02:33;4.10;;;1.30;;
16531;SDS011;66872;63.142;14.482;2023-03-31T15:05:04;3.00;;;1.20;;
16531;SDS011;66872;63.142;14.482;2023-03-31T15:07:39;2.70;;;1.37;;
16531;SDS011;66872;63.142;14.482;2023-03-31T15:10:05;3.03;;;1.27;;
16531;SDS011;66872;63.142;14.482;2023-03-31T15:12:32;6.33;;;1.50;;
16531;SDS011;66872;63.142;14.482;2023-03-31T15:15:02;3.03;;;1.23;;
16531;SDS011;66872;63.142;14.482;2023-03-31T15:17:31;4.33;;;1.10;;
16531;SDS011;66872;63.142;14.482;2023-03-31T15:20:26;4.13;;;1.10;;
16531;SDS011;66872;63.142;14.482;2023-03-31T15:22:54;6.07;;;1.10;;
16531;SDS011;66872;63.142;14.482;2023-03-31T15:25:20;2.33;;;1.30;;
16531;SDS011;66872;63.142;14.482;2023-03-31T15:27:59;3.33;;;1.10;;
16531;SDS011;66872;63.142;14.482;2023-03-31T15:30:35;4.20;;;1.13;;
16531;SDS011;66872;63.142;14.482;2023-03-31T15:33:04;4.20;;;1.30;;
16531;SDS011;66872;63.142;14.482;2023-03-31T15:35:32;3.43;;;1.03;;
16531;SDS011;66872;63.142;14.482;2023-03-31T15:38:00;1.57;;;1.03;;
16531;SDS011;66872;63.142;14.482;2023-03-31T15:40:38;3.57;;;1.30;;
16531;SDS011;66872;63.142;14.482;2023-03-31T15:50:47;4.63;;;1.60;;
16531;SDS011;66872;63.142;14.482;2023-03-31T15:53:24;7.97;;;1.77;;
16531;SDS011;66872;63.142;14.482;2023-03-31T15:55:54;17.17;;;3.00;;
16531;SDS011;66872;63.142;14.482;2023-03-31T15:58:23;10.20;;;2.40;;
16531;SDS011;66872;63.142;14.482;2023-03-31T16:01:09;10.80;;;2.60;;
16531;SDS011;66872;63.142;14.482;2023-03-31T16:03:39;8.33;;;1.93;;
16531;SDS011;66872;63.142;14.482;2023-03-31T16:08:40;5.03;;;1.80;;
16531;SDS011;66872;63.142;14.482;2023-03-31T16:11:11;7.17;;;1.87;;
16531;SDS011;66872;63.142;14.482;2023-03-31T16:13:41;6.40;;;1.70;;
16531;SDS011;66872;63.142;14.482;2023-03-31T16:16:11;4.17;;;1.90;;
16531;SDS011;66872;63.142;14.482;2023-03-31T16:18:44;6.73;;;1.90;;
16531;SDS011;66872;63.142;14.482;2023-03-31T16:21:13;7.00;;;1.90;;
16531;SDS011;66872;63.142;14.482;2023-03-31T16:23:50;9.33;;;2.17;;
16531;SDS011;66872;63.142;14.482;2023-03-31T16:26:23;16.60;;;2.97;;
16531;SDS011;66872;63.142;14.482;2023-03-31T16:28:52;22.87;;;4.43;;
16531;SDS011;66872;63.142;14.482;2023-03-31T16:33:55;30.13;;;5.83;;
16531;SDS011;66872;63.142;14.482;2023-03-31T16:36:21;66.23;;;15.17;;
16531;SDS011;66872;63.142;14.482;2023-03-31T16:38:47;96.90;;;22.60;;
16531;SDS011;66872;63.142;14.482;2023-03-31T16:41:17;51.93;;;12.63;;
16531;SDS011;66872;63.142;14.482;2023-03-31T16:43:43;50.27;;;12.07;;
16531;SDS011;66872;63.142;14.482;2023-03-31T16:46:10;46.33;;;11.97;;
16531;SDS011;66872;63.142;14.482;2023-03-31T16:48:35;38.50;;;10.60;;
16531;SDS011;66872;63.142;14.482;2023-03-31T16:51:01;43.37;;;10.33;;
16531;SDS011;66872;63.142;14.482;2023-03-31T16:53:34;39.30;;;9.23;;
16531;SDS011;66872;63.142;14.482;2023-03-31T16:56:01;41.57;;;9.03;;
16531;SDS011;66872;63.142;14.482;2023-03-31T16:58:28;32.87;;;9.10;;
16531;SDS011;66872;63.142;14.482;2023-03-31T17:00:54;30.40;;;8.93;;
16531;SDS011;66872;63.142;14.482;2023-03-31T17:03:20;31.57;;;9.30;;
16531;SDS011;66872;63.142;14.482;2023-03-31T17:05:48;33.73;;;9.27;;
16531;SDS011;66872;63.142;14.482;2023-03-31T17:08:17;28.47;;;7.77;;
16531;SDS011;66872;63.142;14.482;2023-03-31T17:10:51;35.13;;;8.43;;
16531;SDS011;66872;63.142;14.482;2023-03-31T17:13:22;24.43;;;8.30;;
16531;SDS011;66872;63.142;14.482;2023-03-31T17:15:47;24.93;;;7.67;;
16531;SDS011;66872;63.142;14.482;2023-03-31T17:18:14;33.47;;;8.17;;
16531;SDS011;66872;63.142;14.482;2023-03-31T17:20:40;24.27;;;7.70;;
16531;SDS011;66872;63.142;14.482;2023-03-31T17:23:06;29.93;;;7.43;;
16531;SDS011;66872;63.142;14.482;2023-03-31T17:25:31;24.07;;;7.07;;
16531;SDS011;66872;63.142;14.482;2023-03-31T17:27:58;19.83;;;6.80;;
16531;SDS011;66872;63.142;14.482;2023-03-31T17:30:25;26.30;;;7.23;;
16531;SDS011;66872;63.142;14.482;2023-03-31T17:32:52;23.20;;;6.77;;
16531;SDS011;66872;63.142;14.482;2023-03-31T17:35:18;17.80;;;6.43;;
16531;SDS011;66872;63.142;14.482;2023-03-31T17:37:47;19.43;;;6.60;;
16531;SDS011;66872;63.142;14.482;2023-03-31T17:40:21;21.23;;;6.73;;
16531;SDS011;66872;63.142;14.482;2023-03-31T17:42:47;17.03;;;6.37;;
16531;SDS011;66872;63.142;14.482;2023-03-31T17:45:14;19.90;;;6.40;;
16531;SDS011;66872;63.142;14.482;2023-03-31T17:47:39;13.80;;;5.50;;
16531;SDS011;66872;63.142;14.482;2023-03-31T17:50:06;21.13;;;5.80;;
16531;SDS011;66872;63.142;14.482;2023-03-31T17:52:33;21.50;;;5.77;;
16531;SDS011;66872;63.142;14.482;2023-03-31T17:54:59;14.07;;;5.90;;
16531;SDS011;66872;63.142;14.482;2023-03-31T17:57:26;17.70;;;5.63;;
16531;SDS011;66872;63.142;14.482;2023-03-31T17:59:52;20.50;;;5.70;;
16531;SDS011;66872;63.142;14.482;2023-03-31T18:02:17;15.03;;;5.33;;